createdAt,value
2019-03-10T00:00:19.766Z,0.00
2019-03-10T00:01:19.750Z,0.00
2019-03-10T00:02:19.742Z,0.00
2019-03-10T00:03:19.840Z,0.00
2019-03-10T00:04:19.725Z,0.00
2019-03-10T00:05:19.713Z,0.00
2019-03-10T00:06:19.711Z,0.00
2019-03-10T00:07:19.691Z,0.00
2019-03-10T00:08:19.686Z,0.00
2019-03-10T00:09:19.965Z,0.00
2019-03-10T00:10:19.663Z,0.00
2019-03-10T00:11:19.649Z,0.00
2019-03-10T00:12:19.637Z,0.00
2019-03-10T00:13:19.626Z,0.00
2019-03-10T00:14:19.611Z,0.00
2019-03-10T00:15:19.709Z,0.00
2019-03-10T00:16:19.594Z,0.00
2019-03-10T00:17:19.592Z,0.00
2019-03-10T00:18:19.581Z,0.00
2019-03-10T00:19:19.558Z,0.00
2019-03-10T00:20:19.654Z,0.00
2019-03-10T00:31:19.445Z,0.00
2019-03-10T00:32:19.716Z,0.00
2019-03-10T00:33:19.414Z,0.00
2019-03-10T00:34:19.401Z,0.00
2019-03-10T00:35:19.392Z,0.00
2019-03-10T00:36:19.381Z,0.00
2019-03-10T00:37:19.368Z,0.00
2019-03-10T00:38:19.458Z,0.00
2019-03-10T00:39:19.354Z,0.00
2019-03-10T00:40:19.337Z,0.00
2019-03-10T00:41:19.334Z,0.00
2019-03-10T00:42:19.312Z,0.00
2019-03-10T00:43:19.302Z,0.00
2019-03-10T00:44:19.397Z,0.00
2019-03-10T00:45:19.290Z,0.00
2019-03-10T00:46:19.270Z,0.00
2019-03-10T00:47:19.262Z,0.00
2019-03-10T00:48:19.257Z,0.00
2019-03-10T00:49:19.242Z,0.00
2019-03-10T00:50:19.477Z,0.00
2019-03-10T00:51:19.225Z,0.00
2019-03-10T00:52:19.208Z,0.00
2019-03-10T00:53:19.198Z,0.00
2019-03-10T00:54:19.190Z,0.00
2019-03-10T00:55:19.173Z,0.00
2019-03-10T00:56:19.270Z,0.00
2019-03-10T00:57:19.164Z,0.00
2019-03-10T00:58:19.144Z,0.00
2019-03-10T00:59:19.140Z,0.00
2019-03-10T01:00:19.126Z,0.00
2019-03-10T01:01:19.122Z,0.00
2019-03-10T01:02:19.273Z,0.00
2019-03-10T01:03:19.099Z,0.00
2019-03-10T01:04:19.078Z,0.00
2019-03-10T01:05:19.069Z,0.00
2019-03-10T01:06:19.065Z,0.00
2019-03-10T01:07:19.052Z,0.00
2019-03-10T01:08:19.290Z,0.00
2019-03-10T01:09:19.033Z,0.00
2019-03-10T01:10:19.014Z,0.00
2019-03-10T01:11:19.009Z,0.00
2019-03-10T01:12:19.053Z,0.00
2019-03-10T01:13:18.987Z,0.00
2019-03-10T01:14:19.074Z,0.00
2019-03-10T01:15:18.965Z,0.00
2019-03-10T01:16:18.960Z,0.00
2019-03-10T01:17:18.943Z,0.00
2019-03-10T01:18:18.931Z,4.00
2019-03-10T01:19:18.926Z,4.00
2019-03-10T01:20:19.055Z,4.00
2019-03-10T01:21:18.898Z,4.00
2019-03-10T01:22:18.897Z,4.00
2019-03-10T01:23:18.876Z,8.00
2019-03-10T01:24:18.868Z,8.00
2019-03-10T01:25:18.852Z,8.00
2019-03-10T01:26:19.201Z,12.00
2019-03-10T01:27:18.834Z,12.00
2019-03-10T01:28:18.834Z,12.00
2019-03-10T01:29:18.816Z,16.00
2019-03-10T01:30:18.816Z,24.00
2019-03-10T01:31:18.791Z,28.00
2019-03-10T01:32:18.886Z,36.00
2019-03-10T01:33:18.770Z,40.00
2019-03-10T01:34:18.761Z,48.00
2019-03-10T01:35:18.750Z,60.00
2019-03-10T01:36:18.736Z,68.00
2019-03-10T01:37:18.730Z,84.00
2019-03-10T01:38:18.819Z,96.00
2019-03-10T01:39:18.704Z,112.00
2019-03-10T01:40:18.698Z,128.00
2019-03-10T01:41:18.689Z,148.00
2019-03-10T01:42:18.666Z,172.00
2019-03-10T01:43:18.662Z,192.00
2019-03-10T01:44:18.952Z,216.00
2019-03-10T01:45:18.649Z,244.00
2019-03-10T01:46:18.633Z,276.00
2019-03-10T01:47:18.616Z,316.00
2019-03-10T01:48:18.600Z,356.00
2019-03-10T01:49:18.590Z,400.00
2019-03-10T01:50:18.742Z,448.00
2019-03-10T01:51:18.587Z,504.00
2019-03-10T01:52:18.572Z,564.00
2019-03-10T01:53:25.541Z,628.00
2019-03-10T01:54:20.593Z,700.00
2019-03-10T01:55:18.531Z,812.00
2019-03-10T01:56:18.618Z,964.00
2019-03-10T01:57:18.508Z,1052.00
2019-03-10T01:58:18.502Z,1256.00
2019-03-10T01:59:18.494Z,1520.00
2019-03-10T02:00:18.484Z,1688.00
2019-03-10T02:01:18.471Z,1920.00
2019-03-10T02:02:25.326Z,2396.00
2019-03-10T02:03:43.270Z,2816.00
2019-03-10T02:04:43.259Z,2796.00
2019-03-10T02:05:43.245Z,2848.00
2019-03-10T02:06:43.229Z,3296.00
2019-03-10T02:07:43.328Z,3760.00
2019-03-10T02:08:43.220Z,3944.00
2019-03-10T02:09:43.210Z,4204.00
2019-03-10T02:10:43.189Z,4560.00
2019-03-10T02:11:43.180Z,4864.00
2019-03-10T02:12:43.176Z,5764.00
2019-03-10T02:13:43.259Z,6628.00
2019-03-10T02:14:43.150Z,6976.00
2019-03-10T02:15:43.135Z,7896.00
2019-03-10T02:16:43.124Z,8640.00
2019-03-10T02:17:43.107Z,8304.00
2019-03-10T02:18:43.108Z,8612.00
2019-03-10T02:19:43.352Z,9992.00
2019-03-10T02:20:43.095Z,10748.00
2019-03-10T02:21:43.075Z,10796.00
2019-03-10T02:22:43.066Z,11404.00
2019-03-10T02:23:43.057Z,12192.00
2019-03-10T02:24:43.042Z,12484.00
2019-03-10T02:25:43.130Z,12728.00
2019-03-10T02:26:43.015Z,11168.00
2019-03-10T02:27:42.999Z,9616.00
2019-03-10T02:28:43.001Z,10152.00
2019-03-10T02:29:42.991Z,12632.00
2019-03-10T02:30:42.979Z,14988.00
2019-03-10T02:31:43.067Z,15264.00
2019-03-10T02:32:42.958Z,15232.00
2019-03-10T02:33:42.935Z,16512.00
2019-03-10T02:34:42.944Z,16992.00
2019-03-10T02:35:42.920Z,16288.00
2019-03-10T02:36:42.914Z,16800.00
2019-03-10T02:37:43.202Z,16928.00
2019-03-10T02:38:42.893Z,16992.00
2019-03-10T02:39:42.886Z,19680.00
2019-03-10T02:40:43.568Z,21184.00
2019-03-10T02:41:42.861Z,21728.00
2019-03-10T02:42:42.843Z,21952.00
2019-03-10T02:43:42.936Z,23040.00
2019-03-10T02:44:42.831Z,22112.00
2019-03-10T02:45:42.809Z,21952.00
2019-03-10T02:46:42.804Z,22784.00
2019-03-10T02:47:42.792Z,21824.00
2019-03-10T02:48:42.785Z,21536.00
2019-03-10T02:49:42.869Z,21280.00
2019-03-10T02:50:42.759Z,20736.00
2019-03-10T02:51:42.755Z,20288.00
2019-03-10T02:52:42.738Z,18656.00
2019-03-10T02:53:42.726Z,17984.00
2019-03-10T02:54:42.710Z,18368.00
2019-03-10T02:55:43.006Z,18528.00
2019-03-10T02:56:42.697Z,19520.00
2019-03-10T02:57:42.707Z,20736.00
2019-03-10T02:58:42.664Z,21536.00
2019-03-10T02:59:42.661Z,22432.00
2019-03-10T03:00:42.646Z,21600.00
2019-03-10T03:01:42.744Z,20640.00
2019-03-10T03:02:42.627Z,18848.00
2019-03-10T03:03:42.606Z,14660.00
2019-03-10T03:04:42.609Z,10408.00
2019-03-10T03:05:42.609Z,9040.00
2019-03-10T03:06:42.585Z,8788.00
2019-03-10T03:07:42.676Z,8640.00
2019-03-10T03:08:42.568Z,8516.00
2019-03-10T03:09:42.571Z,8428.00
2019-03-10T03:10:42.547Z,8360.00
2019-03-10T03:11:42.542Z,8312.00
2019-03-10T03:12:42.574Z,8252.00
2019-03-10T03:13:42.751Z,8208.00
2019-03-10T03:14:42.506Z,8120.00
2019-03-10T03:15:42.497Z,7976.00
2019-03-10T03:16:42.485Z,7920.00
2019-03-10T03:17:42.532Z,7940.00
2019-03-10T03:18:42.462Z,7916.00
2019-03-10T03:19:42.561Z,7928.00
2019-03-10T03:20:42.435Z,7920.00
2019-03-10T03:21:43.823Z,7900.00
2019-03-10T03:22:42.427Z,7864.00
2019-03-10T03:23:42.411Z,7856.00
2019-03-10T03:24:42.403Z,7816.00
2019-03-10T03:25:42.536Z,7804.00
2019-03-10T03:26:42.379Z,7792.00
2019-03-10T03:27:42.370Z,7784.00
2019-03-10T03:28:42.359Z,7776.00
2019-03-10T03:29:42.348Z,7740.00
2019-03-10T03:30:42.340Z,7728.00
2019-03-10T03:31:42.627Z,7716.00
2019-03-10T03:32:42.311Z,7712.00
2019-03-10T03:33:42.306Z,7704.00
2019-03-10T03:34:42.294Z,7664.00
2019-03-10T03:35:42.273Z,7660.00
2019-03-10T03:36:42.275Z,7616.00
2019-03-10T03:37:42.356Z,7608.00
2019-03-10T03:38:42.239Z,7572.00
2019-03-10T03:39:42.248Z,7540.00
2019-03-10T03:40:42.224Z,7508.00
2019-03-10T03:41:42.218Z,7508.00
2019-03-10T03:42:42.211Z,7480.00
2019-03-10T03:43:42.309Z,7456.00
2019-03-10T03:44:42.190Z,7424.00
2019-03-10T03:45:42.168Z,7412.00
2019-03-10T03:46:42.172Z,7384.00
2019-03-10T03:47:42.152Z,7420.00
2019-03-10T03:48:42.145Z,7384.00
2019-03-10T03:49:42.377Z,7336.00
2019-03-10T03:50:42.111Z,7348.00
2019-03-10T03:51:42.107Z,7312.00
2019-03-10T03:52:42.102Z,7308.00
2019-03-10T03:53:42.094Z,7280.00
2019-03-10T03:54:42.081Z,7256.00
2019-03-10T03:55:42.166Z,7208.00
2019-03-10T03:56:42.059Z,7240.00
2019-03-10T03:57:42.044Z,7236.00
2019-03-10T03:58:42.031Z,7216.00
2019-03-10T03:59:42.025Z,7216.00
2019-03-10T04:00:42.109Z,7240.00
2019-03-10T04:01:41.999Z,7220.00
2019-03-10T04:02:41.988Z,7224.00
2019-03-10T04:03:41.976Z,7196.00
2019-03-10T04:04:41.969Z,7164.00
2019-03-10T04:05:42.035Z,7152.00
2019-03-10T04:06:42.056Z,7156.00
2019-03-10T04:07:41.943Z,7160.00
2019-03-10T04:08:41.933Z,7164.00
2019-03-10T04:09:41.917Z,7164.00
2019-03-10T04:10:41.905Z,7152.00
2019-03-10T04:11:41.889Z,7136.00
2019-03-10T04:12:41.981Z,7116.00
2019-03-10T04:13:41.870Z,7084.00
2019-03-10T04:14:41.861Z,7068.00
2019-03-10T04:15:41.848Z,7056.00
2019-03-10T04:16:41.842Z,7044.00
2019-03-10T04:17:42.079Z,7028.00
2019-03-10T04:18:41.829Z,7004.00
2019-03-10T04:19:41.812Z,6976.00
2019-03-10T04:20:41.794Z,6960.00
2019-03-10T04:21:41.781Z,6928.00
2019-03-10T04:22:41.813Z,6908.00
2019-03-10T04:23:41.858Z,6896.00
2019-03-10T04:24:41.759Z,6872.00
2019-03-10T04:25:41.741Z,6856.00
2019-03-10T04:26:41.731Z,6844.00
2019-03-10T04:27:41.734Z,6820.00
2019-03-10T04:28:41.710Z,6812.00
2019-03-10T04:29:41.798Z,6796.00
2019-03-10T04:30:41.693Z,6776.00
2019-03-10T04:31:41.718Z,6756.00
2019-03-10T04:32:41.673Z,6728.00
2019-03-10T04:33:41.660Z,6712.00
2019-03-10T04:34:41.666Z,6680.00
2019-03-10T04:35:42.033Z,6672.00
2019-03-10T04:36:41.620Z,6648.00
2019-03-10T04:37:41.615Z,6628.00
2019-03-10T04:38:41.592Z,6600.00
2019-03-10T04:39:41.587Z,6576.00
2019-03-10T04:40:41.687Z,6552.00
2019-03-10T04:41:41.566Z,6528.00
2019-03-10T04:42:41.562Z,6516.00
2019-03-10T04:43:41.539Z,6500.00
2019-03-10T04:44:41.540Z,6484.00
2019-03-10T04:45:41.632Z,6468.00
2019-03-10T04:46:41.512Z,6456.00
2019-03-10T04:47:41.505Z,6424.00
2019-03-10T04:48:41.495Z,6404.00
2019-03-10T04:49:41.479Z,6384.00
2019-03-10T04:50:41.472Z,6376.00
2019-03-10T04:51:41.763Z,6364.00
2019-03-10T04:52:41.449Z,6356.00
2019-03-10T04:53:41.439Z,6336.00
2019-03-10T04:54:41.431Z,6296.00
2019-03-10T04:55:41.415Z,6272.00
2019-03-10T04:56:41.414Z,6264.00
2019-03-10T04:57:41.497Z,6236.00
2019-03-10T04:58:41.389Z,6216.00
2019-03-10T04:59:41.372Z,6208.00
2019-03-10T05:00:41.360Z,6164.00
2019-03-10T05:01:41.349Z,6152.00
2019-03-10T05:02:41.342Z,6120.00
2019-03-10T05:03:41.487Z,6092.00
2019-03-10T05:04:41.326Z,6060.00
2019-03-10T05:05:41.314Z,6036.00
2019-03-10T05:06:41.293Z,6016.00
2019-03-10T05:07:41.294Z,5980.00
2019-03-10T05:08:41.432Z,5944.00
2019-03-10T05:09:41.275Z,5916.00
2019-03-10T05:10:41.255Z,5872.00
2019-03-10T05:11:41.254Z,5836.00
2019-03-10T05:12:41.239Z,5812.00
2019-03-10T05:13:41.686Z,5772.00
2019-03-10T05:14:41.215Z,5740.00
2019-03-10T05:15:41.205Z,5696.00
2019-03-10T05:16:41.193Z,5640.00
2019-03-10T05:17:41.184Z,5600.00
2019-03-10T05:18:41.176Z,5484.00
2019-03-10T05:19:41.304Z,5316.00
2019-03-10T05:20:41.152Z,5228.00
2019-03-10T05:21:41.140Z,5188.00
2019-03-10T05:22:41.134Z,5188.00
2019-03-10T05:23:41.120Z,5120.00
2019-03-10T05:24:41.107Z,5000.00
2019-03-10T05:25:41.195Z,4968.00
2019-03-10T05:26:41.096Z,4980.00
2019-03-10T05:27:41.083Z,5000.00
2019-03-10T05:28:41.058Z,5000.00
2019-03-10T05:29:41.060Z,4984.00
2019-03-10T05:30:41.051Z,4952.00
2019-03-10T05:31:41.281Z,4912.00
2019-03-10T05:32:41.028Z,4896.00
2019-03-10T05:33:41.023Z,4888.00
2019-03-10T05:34:41.007Z,4884.00
2019-03-10T05:35:41.003Z,4892.00
2019-03-10T05:36:40.976Z,4880.00
2019-03-10T05:37:41.077Z,4872.00
2019-03-10T05:38:40.980Z,4864.00
2019-03-10T05:39:40.953Z,4852.00
2019-03-10T05:40:40.945Z,4844.00
2019-03-10T05:41:40.926Z,4840.00
2019-03-10T05:42:40.921Z,4832.00
2019-03-10T05:43:41.010Z,4824.00
2019-03-10T05:44:40.898Z,4824.00
2019-03-10T05:45:40.885Z,4820.00
2019-03-10T05:46:40.880Z,4816.00
2019-03-10T05:47:40.870Z,4812.00
2019-03-10T05:48:40.857Z,4808.00
2019-03-10T05:49:41.147Z,4804.00
2019-03-10T05:50:40.837Z,4800.00
2019-03-10T05:51:40.828Z,4796.00
2019-03-10T05:52:40.812Z,4784.00
2019-03-10T05:53:40.805Z,4784.00
2019-03-10T05:54:40.789Z,4776.00
2019-03-10T05:55:40.879Z,4772.00
2019-03-10T05:56:40.769Z,4768.00
2019-03-10T05:57:40.758Z,4764.00
2019-03-10T05:58:40.746Z,4756.00
2019-03-10T05:59:40.748Z,4744.00
2019-03-10T06:00:42.917Z,4744.00
2019-03-10T06:01:40.817Z,4740.00
2019-03-10T06:02:40.706Z,4732.00
2019-03-10T06:03:40.702Z,4724.00
2019-03-10T06:04:40.678Z,4720.00
2019-03-10T06:05:40.681Z,4716.00
2019-03-10T06:06:40.664Z,4708.00
2019-03-10T06:07:40.950Z,4704.00
2019-03-10T06:08:40.638Z,4700.00
2019-03-10T06:09:40.638Z,4696.00
2019-03-10T06:10:40.626Z,4688.00
2019-03-10T06:11:40.618Z,4684.00
2019-03-10T06:12:40.606Z,4680.00
2019-03-10T06:13:40.692Z,4676.00
2019-03-10T06:14:40.589Z,4668.00
2019-03-10T06:15:40.569Z,4664.00
2019-03-10T06:16:40.551Z,4656.00
2019-03-10T06:17:40.547Z,4652.00
2019-03-10T06:18:40.531Z,4648.00
2019-03-10T06:19:40.627Z,4640.00
2019-03-10T06:20:40.520Z,4636.00
2019-03-10T06:21:40.505Z,4632.00
2019-03-10T06:22:40.494Z,4624.00
2019-03-10T06:23:40.482Z,4624.00
2019-03-10T06:24:40.474Z,4620.00
2019-03-10T06:25:40.715Z,4616.00
2019-03-10T06:26:40.453Z,4620.00
2019-03-10T06:27:40.439Z,4616.00
2019-03-10T06:28:40.433Z,4612.00
2019-03-10T06:29:40.416Z,4612.00
2019-03-10T06:30:40.404Z,4608.00
2019-03-10T06:31:40.501Z,4604.00
2019-03-10T06:32:40.385Z,4596.00
2019-03-10T06:33:40.377Z,4592.00
2019-03-10T06:34:40.362Z,4588.00
2019-03-10T06:35:40.355Z,4580.00
2019-03-10T06:36:40.344Z,4568.00
2019-03-10T06:37:40.427Z,4556.00
2019-03-10T06:38:40.317Z,4536.00
2019-03-10T06:39:40.306Z,4528.00
2019-03-10T06:40:40.303Z,4524.00
2019-03-10T06:41:40.280Z,4520.00
2019-03-10T06:42:40.271Z,4520.00
2019-03-10T06:43:40.619Z,4516.00
2019-03-10T06:44:40.250Z,4516.00
2019-03-10T06:45:40.232Z,4516.00
2019-03-10T06:46:40.235Z,4500.00
2019-03-10T06:47:40.217Z,4496.00
2019-03-10T06:48:40.210Z,4492.00
2019-03-10T06:49:40.300Z,4500.00
2019-03-10T06:50:40.178Z,4504.00
2019-03-10T06:51:40.175Z,4508.00
2019-03-10T06:52:40.166Z,4504.00
2019-03-10T06:53:40.156Z,4504.00
2019-03-10T06:54:40.145Z,4500.00
2019-03-10T06:55:40.228Z,4496.00
2019-03-10T06:56:40.121Z,4476.00
2019-03-10T06:57:40.114Z,4472.00
2019-03-10T06:58:40.088Z,4460.00
2019-03-10T06:59:40.084Z,4464.00
2019-03-10T07:00:40.075Z,4472.00
2019-03-10T07:01:40.364Z,4468.00
2019-03-10T07:02:40.058Z,4380.00
2019-03-10T07:03:40.047Z,4392.00
2019-03-10T07:04:40.036Z,4424.00
2019-03-10T07:05:40.018Z,4440.00
2019-03-10T07:06:40.018Z,4420.00
2019-03-10T07:07:40.096Z,4364.00
2019-03-10T07:08:39.989Z,4328.00
2019-03-10T07:09:39.982Z,4308.00
2019-03-10T07:10:39.962Z,4368.00
2019-03-10T07:11:39.966Z,4404.00
2019-03-10T07:12:39.943Z,4436.00
2019-03-10T07:13:40.029Z,4472.00
2019-03-10T07:14:39.928Z,4492.00
2019-03-10T07:15:39.913Z,4516.00
2019-03-10T07:16:39.896Z,4500.00
2019-03-10T07:17:39.885Z,4472.00
2019-03-10T07:18:39.871Z,4448.00
2019-03-10T07:19:40.163Z,4456.00
2019-03-10T07:20:39.855Z,4448.00
2019-03-10T07:21:39.841Z,4456.00
2019-03-10T07:22:39.838Z,4476.00
2019-03-10T07:23:39.825Z,4524.00
2019-03-10T07:24:39.809Z,4536.00
2019-03-10T07:25:39.955Z,4568.00
2019-03-10T07:26:39.791Z,4608.00
2019-03-10T07:27:39.780Z,4604.00
2019-03-10T07:28:39.769Z,4540.00
2019-03-10T07:29:39.751Z,4652.00
2019-03-10T07:30:39.743Z,4776.00
2019-03-10T07:31:39.886Z,4756.00
2019-03-10T07:32:39.721Z,4800.00
2019-03-10T07:33:39.713Z,4820.00
2019-03-10T07:34:39.707Z,4856.00
2019-03-10T07:35:39.692Z,4972.00
2019-03-10T07:36:39.681Z,4916.00
2019-03-10T07:37:39.923Z,4792.00
2019-03-10T07:38:39.660Z,4804.00
2019-03-10T07:39:39.641Z,4860.00
2019-03-10T07:40:39.635Z,4904.00
2019-03-10T07:41:39.622Z,4904.00
2019-03-10T07:42:39.615Z,4904.00
2019-03-10T07:43:39.707Z,4836.00
2019-03-10T07:44:39.588Z,4828.00
2019-03-10T07:45:39.585Z,4892.00
2019-03-10T07:46:39.565Z,5008.00
2019-03-10T07:47:39.560Z,5004.00
2019-03-10T07:48:39.546Z,4940.00
2019-03-10T07:49:39.637Z,5012.00
2019-03-10T07:50:39.524Z,5092.00
2019-03-10T07:51:39.515Z,5264.00
2019-03-10T07:52:39.503Z,5296.00
2019-03-10T07:53:39.487Z,5320.00
2019-03-10T07:54:39.483Z,5308.00
2019-03-10T07:55:39.729Z,5344.00
2019-03-10T07:56:39.463Z,5312.00
2019-03-10T07:57:39.456Z,5288.00
2019-03-10T07:58:39.441Z,5352.00
2019-03-10T07:59:39.431Z,5324.00
2019-03-10T08:00:39.421Z,5336.00
2019-03-10T08:01:39.552Z,5384.00
2019-03-10T08:02:39.399Z,5468.00
2019-03-10T08:03:39.436Z,5488.00
2019-03-10T08:04:39.369Z,5492.00
2019-03-10T08:05:39.363Z,5544.00
2019-03-10T08:06:39.351Z,5588.00
2019-03-10T08:07:39.438Z,5628.00
2019-03-10T08:08:39.325Z,5744.00
2019-03-10T08:09:39.318Z,5836.00
2019-03-10T08:10:39.305Z,5904.00
2019-03-10T08:11:39.291Z,5912.00
2019-03-10T08:12:39.275Z,5876.00
2019-03-10T08:13:40.375Z,5932.00
2019-03-10T08:14:39.257Z,5956.00
2019-03-10T08:15:39.248Z,5916.00
2019-03-10T08:16:39.244Z,5952.00
2019-03-10T08:17:39.225Z,5932.00
2019-03-10T08:18:39.211Z,5844.00
2019-03-10T08:19:39.311Z,5832.00
2019-03-10T08:20:39.200Z,5848.00
2019-03-10T08:21:39.183Z,5908.00
2019-03-10T08:22:39.175Z,5980.00
2019-03-10T08:23:39.163Z,6024.00
2019-03-10T08:24:39.159Z,6076.00
2019-03-10T08:25:39.241Z,6180.00
2019-03-10T08:26:39.130Z,6244.00
2019-03-10T08:27:39.122Z,6244.00
2019-03-10T08:28:39.115Z,6260.00
2019-03-10T08:29:39.104Z,6256.00
2019-03-10T08:30:39.086Z,6248.00
2019-03-10T08:31:39.334Z,6236.00
2019-03-10T08:32:39.066Z,6232.00
2019-03-10T08:33:39.054Z,6264.00
2019-03-10T08:34:39.044Z,6276.00
2019-03-10T08:35:39.055Z,6268.00
2019-03-10T08:36:39.027Z,6284.00
2019-03-10T08:37:39.112Z,6292.00
2019-03-10T08:38:39.006Z,6356.00
2019-03-10T08:39:38.997Z,6436.00
2019-03-10T08:40:38.978Z,6428.00
2019-03-10T08:41:38.967Z,6436.00
2019-03-10T08:42:38.955Z,6496.00
2019-03-10T08:43:39.046Z,6524.00
2019-03-10T08:44:38.934Z,6536.00
2019-03-10T08:45:38.929Z,6472.00
2019-03-10T08:46:38.921Z,6368.00
2019-03-10T08:47:38.908Z,6280.00
2019-03-10T08:48:38.890Z,6216.00
2019-03-10T08:49:45.058Z,6188.00
2019-03-10T08:50:40.874Z,6124.00
2019-03-10T08:51:38.853Z,6048.00
2019-03-10T08:52:38.854Z,5960.00
2019-03-10T08:53:38.841Z,5932.00
2019-03-10T08:54:38.824Z,6020.00
2019-03-10T08:55:38.920Z,5940.00
2019-03-10T08:56:38.856Z,5772.00
2019-03-10T08:57:38.793Z,5600.00
2019-03-10T08:58:38.777Z,5516.00
2019-03-10T08:59:38.775Z,5648.00
2019-03-10T09:00:38.758Z,5800.00
2019-03-10T09:01:38.852Z,5964.00
2019-03-10T09:02:38.738Z,6072.00
2019-03-10T09:03:38.730Z,6124.00
2019-03-10T09:04:38.710Z,6168.00
2019-03-10T09:05:38.715Z,6204.00
2019-03-10T09:06:38.694Z,6184.00
2019-03-10T09:07:38.930Z,6196.00
2019-03-10T09:08:38.672Z,6236.00
2019-03-10T09:09:38.663Z,6260.00
2019-03-10T09:10:38.648Z,6224.00
2019-03-10T09:11:38.641Z,6148.00
2019-03-10T09:12:38.626Z,6088.00
2019-03-10T09:13:38.722Z,6140.00
2019-03-10T09:14:38.608Z,6236.00
2019-03-10T09:15:40.946Z,6236.00
2019-03-10T09:16:38.587Z,6212.00
2019-03-10T09:17:38.573Z,6140.00
2019-03-10T09:18:38.567Z,6104.00
2019-03-10T09:19:38.704Z,6068.00
2019-03-10T09:20:38.545Z,6044.00
2019-03-10T09:21:38.523Z,6028.00
2019-03-10T09:22:38.514Z,6076.00
2019-03-10T09:23:38.510Z,6092.00
2019-03-10T09:24:38.492Z,6068.00
2019-03-10T09:25:38.740Z,5988.00
2019-03-10T09:26:38.474Z,5904.00
2019-03-10T09:27:38.460Z,5892.00
2019-03-10T09:28:38.449Z,5892.00
2019-03-10T09:29:38.443Z,5856.00
2019-03-10T09:30:38.431Z,5780.00
2019-03-10T09:31:38.520Z,5728.00
2019-03-10T09:32:38.414Z,5640.00
2019-03-10T09:33:38.399Z,5536.00
2019-03-10T09:34:38.389Z,5428.00
2019-03-10T09:35:38.379Z,5340.00
2019-03-10T09:36:38.362Z,5292.00
2019-03-10T09:37:38.450Z,5272.00
2019-03-10T09:38:38.341Z,5240.00
2019-03-10T09:39:38.330Z,5152.00
2019-03-10T09:40:38.312Z,5204.00
2019-03-10T09:41:38.322Z,5300.00
2019-03-10T09:42:38.310Z,5380.00
2019-03-10T09:43:38.584Z,5420.00
2019-03-10T09:44:38.275Z,5368.00
2019-03-10T09:45:38.263Z,5336.00
2019-03-10T09:46:38.254Z,5344.00
2019-03-10T09:47:38.245Z,5348.00
2019-03-10T09:48:38.238Z,5392.00
2019-03-10T09:49:38.321Z,5416.00
2019-03-10T09:50:38.205Z,5352.00
2019-03-10T09:51:38.199Z,5248.00
2019-03-10T09:52:38.189Z,5132.00
2019-03-10T09:53:38.183Z,5052.00
2019-03-10T09:54:38.166Z,4992.00
2019-03-10T09:55:38.261Z,5048.00
2019-03-10T09:56:38.150Z,5156.00
2019-03-10T09:57:38.129Z,5216.00
2019-03-10T09:58:38.129Z,5212.00
2019-03-10T09:59:38.119Z,5208.00
2019-03-10T10:00:38.101Z,5220.00
2019-03-10T10:01:38.343Z,5244.00
2019-03-10T10:02:38.083Z,5312.00
2019-03-10T10:03:38.075Z,5348.00
2019-03-10T10:04:38.060Z,5344.00
2019-03-10T10:05:38.047Z,5336.00
2019-03-10T10:06:38.086Z,5284.00
2019-03-10T10:07:38.125Z,5204.00
2019-03-10T10:08:38.014Z,5172.00
2019-03-10T10:09:38.004Z,5144.00
2019-03-10T10:10:37.995Z,5136.00
2019-03-10T10:11:37.982Z,5204.00
2019-03-10T10:12:38.270Z,5212.00
2019-03-10T10:13:37.965Z,5220.00
2019-03-10T10:14:37.956Z,5208.00
2019-03-10T10:15:37.943Z,5208.00
2019-03-10T10:16:37.931Z,5208.00
2019-03-10T10:17:37.921Z,5208.00
2019-03-10T10:18:38.004Z,5220.00
2019-03-10T10:19:37.884Z,5248.00
2019-03-10T10:20:37.884Z,5244.00
2019-03-10T10:21:37.862Z,5232.00
2019-03-10T10:22:37.866Z,5228.00
2019-03-10T10:23:37.846Z,5196.00
2019-03-10T10:24:37.939Z,5124.00
2019-03-10T10:25:37.819Z,5112.00
2019-03-10T10:26:37.815Z,5168.00
2019-03-10T10:27:37.810Z,5228.00
2019-03-10T10:28:37.794Z,5248.00
2019-03-10T10:29:38.027Z,5248.00
2019-03-10T10:30:37.771Z,5236.00
2019-03-10T10:31:37.760Z,5252.00
2019-03-10T10:32:37.750Z,5248.00
2019-03-10T10:33:37.740Z,5232.00
2019-03-10T10:34:37.729Z,5236.00
2019-03-10T10:35:37.818Z,5252.00
2019-03-10T10:36:37.715Z,5252.00
2019-03-10T10:37:37.705Z,5248.00
2019-03-10T10:38:37.925Z,5276.00
2019-03-10T10:39:37.675Z,5284.00
2019-03-10T10:40:37.658Z,5252.00
2019-03-10T10:41:37.762Z,5240.00
2019-03-10T10:42:37.643Z,5232.00
2019-03-10T10:43:37.633Z,5212.00
2019-03-10T10:44:37.620Z,5196.00
2019-03-10T10:45:37.625Z,5184.00
2019-03-10T10:46:37.602Z,5172.00
2019-03-10T10:47:37.895Z,5160.00
2019-03-10T10:48:37.583Z,5152.00
2019-03-10T10:49:37.563Z,5140.00
2019-03-10T10:50:37.578Z,5120.00
2019-03-10T10:51:37.548Z,5080.00
2019-03-10T10:52:37.545Z,5028.00
2019-03-10T10:53:37.676Z,5000.00
2019-03-10T10:54:37.523Z,4972.00
2019-03-10T10:55:37.512Z,4956.00
2019-03-10T10:56:37.512Z,4924.00
2019-03-10T10:57:37.511Z,4900.00
2019-03-10T10:58:37.479Z,4868.00
2019-03-10T10:59:37.612Z,4856.00
2019-03-10T11:00:37.453Z,4856.00
2019-03-10T11:01:37.436Z,4868.00
2019-03-10T11:02:37.441Z,4860.00
2019-03-10T11:03:37.419Z,4864.00
2019-03-10T11:04:37.414Z,4868.00
2019-03-10T11:05:37.758Z,4868.00
2019-03-10T11:06:37.393Z,4852.00
2019-03-10T11:07:37.376Z,4836.00
2019-03-10T11:08:37.363Z,4816.00
2019-03-10T11:09:37.358Z,4800.00
2019-03-10T11:10:37.341Z,4792.00
2019-03-10T11:11:37.437Z,4768.00
2019-03-10T11:12:37.326Z,4756.00
2019-03-10T11:13:37.307Z,4736.00
2019-03-10T11:14:37.302Z,4704.00
2019-03-10T11:15:37.293Z,4660.00
2019-03-10T11:16:37.277Z,4616.00
2019-03-10T11:17:37.370Z,4572.00
2019-03-10T11:18:37.253Z,4528.00
2019-03-10T11:19:37.244Z,4484.00
2019-03-10T11:20:37.242Z,4432.00
2019-03-10T11:21:37.217Z,4388.00
2019-03-10T11:22:37.206Z,4348.00
2019-03-10T11:23:37.502Z,4300.00
2019-03-10T11:24:37.194Z,4256.00
2019-03-10T11:25:37.184Z,4212.00
2019-03-10T11:26:37.174Z,4180.00
2019-03-10T11:27:37.162Z,4136.00
2019-03-10T11:28:37.151Z,4080.00
2019-03-10T11:29:37.236Z,4016.00
2019-03-10T11:30:37.149Z,3952.00
2019-03-10T11:31:37.117Z,3884.00
2019-03-10T11:32:37.101Z,3816.00
2019-03-10T11:33:37.092Z,3756.00
2019-03-10T11:34:37.077Z,3700.00
2019-03-10T11:35:37.169Z,3648.00
2019-03-10T11:36:37.062Z,3604.00
2019-03-10T11:37:37.051Z,3568.00
2019-03-10T11:38:37.333Z,3536.00
2019-03-10T11:39:37.029Z,3512.00
2019-03-10T11:40:37.019Z,3484.00
2019-03-10T11:41:37.252Z,3460.00
2019-03-10T11:42:36.996Z,3428.00
2019-03-10T11:43:36.989Z,3400.00
2019-03-10T11:44:36.965Z,3368.00
2019-03-10T11:45:36.959Z,3336.00
2019-03-10T11:46:36.949Z,3300.00
2019-03-10T11:47:37.094Z,3256.00
2019-03-10T11:48:36.922Z,3220.00
2019-03-10T11:49:36.917Z,3184.00
2019-03-10T11:50:36.909Z,3156.00
2019-03-10T11:51:36.898Z,3116.00
2019-03-10T11:52:36.883Z,3080.00
2019-03-10T11:53:36.971Z,3040.00
2019-03-10T11:54:36.860Z,3020.00
2019-03-10T11:55:36.854Z,3004.00
2019-03-10T11:56:36.851Z,3000.00
2019-03-10T11:57:36.826Z,2996.00
2019-03-10T11:58:36.810Z,2988.00
2019-03-10T11:59:37.061Z,2972.00
2019-03-10T12:00:36.788Z,2948.00
2019-03-10T12:01:36.780Z,2920.00
2019-03-10T12:02:36.772Z,2880.00
2019-03-10T12:03:36.767Z,2832.00
2019-03-10T12:04:36.753Z,2788.00
2019-03-10T12:05:36.838Z,2748.00
2019-03-10T12:06:36.798Z,2712.00
2019-03-10T12:07:36.722Z,2688.00
2019-03-10T12:08:36.705Z,2664.00
2019-03-10T12:09:36.701Z,2640.00
2019-03-10T12:10:36.682Z,2612.00
2019-03-10T12:11:36.779Z,2580.00
2019-03-10T12:12:36.666Z,2548.00
2019-03-10T12:13:36.657Z,2516.00
2019-03-10T12:14:36.642Z,2488.00
2019-03-10T12:15:36.634Z,2456.00
2019-03-10T12:16:36.614Z,2412.00
2019-03-10T12:17:36.963Z,2360.00
2019-03-10T12:18:36.602Z,2300.00
2019-03-10T12:19:36.592Z,2244.00
2019-03-10T12:20:36.569Z,2188.00
2019-03-10T12:21:36.569Z,2128.00
2019-03-10T12:22:36.556Z,2076.00